createdAt,value
2023-05-15T00:02:14.371Z,10.38
2023-05-15T00:04:47.633Z,10.40
2023-05-15T00:07:21.991Z,10.40
2023-05-15T00:09:54.788Z,10.37
2023-05-15T00:12:28.073Z,10.47
2023-05-15T00:15:00.970Z,10.46
2023-05-15T00:17:34.027Z,10.35
2023-05-15T00:20:09.964Z,10.23
2023-05-15T00:22:44.713Z,10.30
2023-05-15T00:25:19.777Z,10.24
2023-05-15T00:27:53.762Z,10.19
2023-05-15T00:30:26.606Z,10.28
2023-05-15T00:32:59.677Z,10.38
2023-05-15T00:35:33.554Z,10.47
2023-05-15T00:38:07.889Z,10.41
2023-05-15T00:40:44.779Z,10.39
2023-05-15T00:43:19.443Z,10.44
2023-05-15T00:45:53.005Z,10.32
2023-05-15T00:48:26.537Z,9.69
2023-05-15T00:51:00.891Z,10.14
2023-05-15T00:53:35.276Z,10.08
2023-05-15T00:56:10.626Z,10.16
2023-05-15T00:58:43.902Z,10.15
2023-05-15T01:01:18.884Z,10.19
2023-05-15T01:03:51.937Z,10.06
2023-05-15T01:06:26.850Z,10.09
2023-05-15T01:09:04.083Z,9.95
2023-05-15T01:11:39.261Z,10.02
2023-05-15T01:14:12.158Z,9.90
2023-05-15T01:16:45.136Z,9.86
2023-05-15T01:19:18.301Z,9.69
2023-05-15T01:22:17.386Z,9.72
2023-05-15T01:25:27.110Z,9.76
2023-05-15T01:28:06.786Z,9.62
2023-05-15T01:30:43.235Z,9.46
2023-05-15T01:33:22.025Z,9.13
2023-05-15T01:36:02.569Z,9.33
2023-05-15T01:38:40.852Z,9.18
2023-05-15T01:41:17.560Z,9.09
2023-05-15T01:44:00.996Z,9.26
2023-05-15T01:46:38.865Z,9.24
2023-05-15T01:49:14.837Z,9.10
2023-05-15T01:51:52.108Z,9.18
2023-05-15T01:54:28.949Z,9.12
2023-05-15T01:57:02.937Z,9.20
2023-05-15T01:59:38.372Z,9.13
2023-05-15T02:02:12.154Z,9.26
2023-05-15T02:04:48.757Z,9.14
2023-05-15T02:07:22.636Z,9.03
2023-05-15T02:09:56.539Z,9.08
2023-05-15T02:12:29.892Z,9.12
2023-05-15T02:15:05.195Z,9.29
2023-05-15T02:17:38.254Z,9.11
2023-05-15T02:20:12.054Z,9.24
2023-05-15T02:22:45.066Z,9.27
2023-05-15T02:25:18.851Z,9.40
2023-05-15T02:27:58.558Z,9.34
2023-05-15T02:30:39.511Z,9.20
2023-05-15T02:33:19.597Z,9.10
2023-05-15T02:35:58.544Z,9.08
2023-05-15T02:38:35.000Z,9.09
2023-05-15T02:41:09.347Z,9.36
2023-05-15T02:43:45.805Z,8.96
2023-05-15T02:46:21.512Z,9.09
2023-05-15T02:48:57.314Z,9.19
2023-05-15T02:51:30.574Z,9.17
2023-05-15T02:54:04.237Z,9.06
2023-05-15T02:56:40.012Z,9.26
2023-05-15T02:59:13.504Z,9.25
2023-05-15T03:01:48.001Z,9.36
2023-05-15T03:04:22.562Z,9.49
2023-05-15T03:06:55.854Z,9.35
2023-05-15T03:09:28.752Z,9.29
2023-05-15T03:12:01.642Z,9.33
2023-05-15T03:14:34.649Z,9.17
2023-05-15T03:17:10.800Z,9.30
2023-05-15T03:19:43.713Z,9.17
2023-05-15T03:22:16.837Z,9.21
2023-05-15T03:24:50.119Z,9.10
2023-05-15T03:27:22.947Z,9.19
2023-05-15T03:29:55.936Z,9.02
2023-05-15T03:32:30.454Z,9.16
2023-05-15T03:35:03.408Z,9.16
2023-05-15T03:37:36.765Z,9.04
2023-05-15T03:40:10.692Z,8.98
2023-05-15T03:42:44.326Z,9.00
2023-05-15T03:45:21.006Z,8.96
2023-05-15T03:47:56.301Z,9.01
2023-05-15T03:50:31.025Z,9.12
2023-05-15T03:53:05.443Z,8.88
2023-05-15T03:55:41.359Z,9.10
2023-05-15T03:58:14.449Z,9.14
2023-05-15T04:00:47.373Z,9.21
2023-05-15T04:03:21.831Z,9.32
2023-05-15T04:05:55.025Z,9.23
2023-05-15T04:08:28.048Z,9.40
2023-05-15T04:11:01.167Z,9.49
2023-05-15T04:13:34.135Z,9.36
2023-05-15T04:16:08.674Z,9.38
2023-05-15T04:18:42.956Z,9.45
2023-05-15T04:21:15.980Z,9.54
2023-05-15T04:23:48.742Z,9.57
2023-05-15T04:26:21.680Z,9.70
2023-05-15T04:31:36.062Z,9.79
2023-05-15T04:34:10.723Z,9.80
2023-05-15T04:36:43.739Z,9.81
2023-05-15T04:39:16.741Z,10.01
2023-05-15T04:41:50.046Z,9.79
2023-05-15T04:44:23.022Z,10.21
2023-05-15T04:46:55.932Z,10.28
2023-05-15T04:49:30.182Z,9.92
2023-05-15T04:52:03.129Z,9.79
2023-05-15T04:54:36.161Z,10.05
2023-05-15T04:57:09.286Z,10.22
2023-05-15T04:59:42.214Z,10.34
2023-05-15T05:02:15.286Z,10.07
2023-05-15T05:04:49.860Z,10.40
2023-05-15T05:07:22.790Z,10.40
2023-05-15T05:09:55.896Z,10.20
2023-05-15T05:12:28.880Z,10.23
2023-05-15T05:15:01.896Z,10.24
2023-05-15T05:17:34.975Z,10.34
2023-05-15T05:20:12.988Z,10.04
2023-05-15T05:22:46.333Z,10.07
2023-05-15T05:25:19.721Z,10.41
2023-05-15T05:27:52.786Z,10.39
2023-05-15T05:30:25.724Z,10.59
2023-05-15T05:32:58.664Z,10.68
2023-05-15T05:35:33.214Z,10.76
2023-05-15T05:38:07.248Z,11.43
2023-05-15T05:40:40.141Z,11.49
2023-05-15T05:43:13.038Z,11.55
2023-05-15T05:45:46.147Z,11.44
2023-05-15T05:48:19.288Z,11.81
2023-05-15T05:50:53.873Z,11.91
2023-05-15T05:53:26.877Z,12.06
2023-05-15T05:55:59.806Z,12.05
2023-05-15T05:58:32.781Z,12.17
2023-05-15T06:01:06.358Z,12.38
2023-05-15T06:03:39.985Z,12.26
2023-05-15T06:06:14.251Z,12.13
2023-05-15T06:08:47.031Z,12.63
2023-05-15T06:11:19.912Z,12.35
2023-05-15T06:13:52.708Z,12.22
2023-05-15T06:16:25.591Z,12.21
2023-05-15T06:18:58.362Z,12.72
2023-05-15T06:21:32.739Z,12.27
2023-05-15T06:24:06.011Z,12.24
2023-05-15T06:26:38.930Z,12.47
2023-05-15T06:29:11.763Z,12.48
2023-05-15T06:31:44.613Z,12.57
2023-05-15T06:34:17.402Z,12.56
2023-05-15T06:36:52.570Z,12.37
2023-05-15T06:39:25.729Z,12.77
2023-05-15T06:42:01.429Z,12.71
2023-05-15T06:44:36.263Z,13.04
2023-05-15T06:47:09.103Z,13.13
2023-05-15T06:49:42.072Z,13.39
2023-05-15T06:52:16.272Z,13.55
2023-05-15T06:54:49.087Z,13.38
2023-05-15T06:57:21.850Z,13.54
2023-05-15T06:59:54.726Z,13.82
2023-05-15T07:02:27.602Z,14.51
2023-05-15T07:05:00.607Z,14.75
2023-05-15T07:07:34.830Z,14.46
2023-05-15T07:10:09.299Z,14.38
2023-05-15T07:12:42.077Z,14.46
2023-05-15T07:15:14.855Z,14.70
2023-05-15T07:17:47.827Z,15.00
2023-05-15T07:20:20.743Z,15.06
2023-05-15T07:22:56.653Z,15.15
2023-05-15T07:25:29.984Z,15.98
2023-05-15T07:28:03.356Z,15.71
2023-05-15T07:30:36.514Z,15.80
2023-05-15T07:33:09.251Z,15.87
2023-05-15T07:35:42.264Z,15.92
2023-05-15T07:38:16.644Z,15.70
2023-05-15T07:40:49.434Z,15.99
2023-05-15T07:43:22.200Z,16.24
2023-05-15T07:45:55.035Z,16.38
2023-05-15T07:48:27.848Z,16.84
2023-05-15T07:51:00.829Z,16.85
2023-05-15T07:53:35.002Z,16.94
2023-05-15T07:56:08.458Z,17.27
2023-05-15T07:58:41.218Z,17.14
2023-05-15T08:01:13.957Z,17.07
2023-05-15T08:03:47.009Z,17.18
2023-05-15T08:06:19.994Z,17.24
2023-05-15T08:08:54.283Z,17.35
2023-05-15T08:11:28.189Z,17.49
2023-05-15T08:14:01.024Z,17.28
2023-05-15T08:16:33.948Z,17.91
2023-05-15T08:19:07.906Z,18.17
2023-05-15T08:21:40.941Z,18.13
2023-05-15T08:24:15.449Z,19.00
2023-05-15T08:26:48.289Z,18.58
2023-05-15T08:29:21.210Z,18.72
2023-05-15T08:31:54.166Z,18.42
2023-05-15T08:34:26.924Z,18.51
2023-05-15T08:37:00.304Z,18.62
2023-05-15T08:39:34.639Z,19.52
2023-05-15T08:42:11.963Z,19.19
2023-05-15T08:44:45.508Z,19.73
2023-05-15T08:47:20.075Z,20.31
2023-05-15T08:50:00.690Z,19.82
2023-05-15T08:52:34.292Z,19.52
2023-05-15T08:55:10.003Z,19.60
2023-05-15T08:57:43.982Z,19.70
2023-05-15T09:00:20.980Z,19.85
2023-05-15T09:02:55.748Z,19.96
2023-05-15T09:05:29.631Z,20.44
2023-05-15T09:08:06.637Z,20.57
2023-05-15T09:10:41.327Z,20.41
2023-05-15T09:13:15.814Z,19.86
2023-05-15T09:15:48.886Z,20.27
2023-05-15T09:18:21.838Z,19.68
2023-05-15T09:20:56.195Z,20.00
2023-05-15T09:23:29.342Z,20.23
2023-05-15T09:26:04.739Z,21.16
2023-05-15T09:28:37.603Z,21.14
2023-05-15T09:31:10.409Z,21.62
2023-05-15T09:33:44.025Z,20.73
2023-05-15T09:36:22.852Z,21.24
2023-05-15T09:38:59.856Z,20.87
2023-05-15T09:41:34.161Z,20.43
2023-05-15T09:44:21.275Z,21.38
2023-05-15T09:46:55.092Z,22.01
2023-05-15T09:49:30.980Z,22.59
2023-05-15T09:52:08.309Z,22.00
2023-05-15T09:54:41.820Z,21.21
2023-05-15T09:57:16.216Z,21.22
2023-05-15T09:59:50.044Z,21.76
2023-05-15T10:02:28.163Z,21.12
2023-05-15T10:05:01.341Z,21.20
2023-05-15T10:07:36.805Z,21.50
2023-05-15T10:10:10.620Z,21.34
2023-05-15T10:12:45.834Z,22.12
2023-05-15T10:15:21.480Z,21.79
2023-05-15T10:17:54.630Z,22.44
2023-05-15T10:20:28.167Z,22.55
2023-05-15T10:23:02.541Z,23.18
2023-05-15T10:25:42.398Z,22.99
2023-05-15T10:28:18.319Z,22.96
2023-05-15T10:30:52.296Z,23.16
2023-05-15T10:33:25.402Z,22.73
2023-05-15T10:36:00.109Z,22.21
2023-05-15T10:38:34.162Z,22.54
2023-05-15T10:41:17.233Z,23.18
2023-05-15T10:43:54.580Z,23.32
2023-05-15T10:46:29.024Z,23.40
2023-05-15T10:49:02.405Z,22.66
2023-05-15T10:51:36.928Z,22.47
2023-05-15T10:54:11.635Z,20.91
2023-05-15T10:56:44.771Z,20.05
2023-05-15T10:59:19.394Z,19.40
2023-05-15T11:01:53.232Z,18.25
2023-05-15T11:04:27.525Z,18.31
2023-05-15T11:15:22.396Z,16.02
2023-05-15T11:18:06.667Z,15.74
2023-05-15T11:21:25.246Z,16.29
2023-05-15T11:34:56.723Z,17.48
2023-05-15T11:38:15.815Z,16.81
2023-05-15T11:41:50.862Z,17.40
2023-05-15T11:51:54.404Z,17.28
2023-05-15T11:58:24.473Z,17.36
2023-05-15T12:02:37.484Z,17.73
2023-05-15T12:05:59.802Z,17.76
2023-05-15T12:09:08.041Z,18.30
2023-05-15T12:12:27.662Z,18.90
2023-05-15T12:15:36.720Z,18.88
2023-05-15T12:18:45.432Z,19.05
2023-05-15T12:21:37.702Z,19.32
2023-05-15T12:24:22.225Z,19.52
2023-05-15T12:27:03.985Z,19.46
2023-05-15T12:29:41.618Z,19.80
2023-05-15T12:32:15.044Z,19.10
2023-05-15T12:34:49.087Z,18.81
2023-05-15T12:37:23.107Z,18.92
2023-05-15T12:40:00.954Z,19.04
2023-05-15T12:42:40.073Z,19.30
2023-05-15T12:45:15.409Z,19.12
2023-05-15T12:47:55.375Z,19.10
2023-05-15T12:50:30.840Z,18.67
2023-05-15T12:53:06.591Z,18.92
2023-05-15T12:55:41.877Z,19.01
2023-05-15T12:58:18.760Z,18.84
2023-05-15T13:00:52.945Z,18.45
2023-05-15T13:03:28.029Z,18.38
2023-05-15T13:06:03.788Z,18.72
2023-05-15T13:08:41.796Z,18.59
2023-05-15T13:11:16.477Z,18.65
2023-05-15T13:13:51.079Z,18.67
2023-05-15T13:16:27.088Z,18.53
2023-05-15T13:19:00.258Z,18.93
2023-05-15T13:21:33.260Z,19.02
2023-05-15T13:24:09.988Z,19.13
2023-05-15T13:27:20.354Z,18.95
2023-05-15T13:29:55.654Z,19.04
2023-05-15T13:32:29.006Z,18.94
2023-05-15T13:35:02.270Z,19.09
2023-05-15T13:37:35.176Z,19.53
2023-05-15T13:40:11.062Z,19.96
2023-05-15T13:44:01.568Z,19.80
2023-05-15T13:46:39.412Z,19.63
2023-05-15T13:49:12.371Z,20.12
2023-05-15T13:51:45.253Z,20.24
2023-05-15T13:54:18.105Z,20.80
2023-05-15T13:56:51.036Z,21.41
2023-05-15T13:59:23.892Z,21.76
2023-05-15T14:01:58.163Z,21.51
2023-05-15T14:04:31.032Z,21.71
2023-05-15T14:07:03.886Z,21.63
2023-05-15T14:09:36.791Z,22.30
2023-05-15T14:12:11.341Z,22.13
2023-05-15T14:14:45.874Z,21.64
2023-05-15T14:17:20.021Z,21.13
2023-05-15T14:19:53.185Z,21.54
2023-05-15T14:22:25.978Z,21.77
2023-05-15T14:24:59.011Z,21.50
2023-05-15T14:27:32.395Z,21.21
2023-05-15T14:30:06.486Z,20.75
2023-05-15T14:32:41.459Z,20.46
2023-05-15T14:35:15.185Z,19.68
2023-05-15T14:37:48.041Z,18.69
2023-05-15T14:40:20.899Z,18.68
2023-05-15T14:42:53.920Z,18.68
2023-05-15T14:45:26.964Z,18.54
2023-05-15T14:48:01.482Z,19.16
2023-05-15T14:50:34.416Z,19.51
2023-05-15T14:53:07.446Z,18.94
2023-05-15T14:55:40.244Z,19.13
2023-05-15T14:58:13.006Z,19.50
2023-05-15T15:00:46.501Z,19.00
2023-05-15T15:03:22.041Z,19.21
2023-05-15T15:05:54.994Z,19.21
2023-05-15T15:08:27.750Z,19.35
2023-05-15T15:11:00.497Z,19.02
2023-05-15T15:13:33.352Z,18.74
2023-05-15T15:16:08.298Z,18.39
2023-05-15T15:18:46.534Z,17.58
2023-05-15T15:21:22.775Z,17.04
2023-05-15T15:23:56.590Z,16.27
2023-05-15T15:26:30.100Z,16.12
2023-05-15T15:29:03.596Z,16.01
2023-05-15T15:31:37.081Z,15.67
2023-05-15T15:34:12.456Z,15.09
2023-05-15T15:36:45.536Z,14.67
2023-05-15T15:39:18.594Z,14.54
2023-05-15T15:41:52.392Z,14.70
2023-05-15T15:44:25.921Z,14.94
2023-05-15T15:46:59.564Z,15.04
2023-05-15T15:50:19.928Z,15.20
2023-05-15T15:52:55.201Z,15.31
2023-05-15T15:55:28.627Z,15.48
2023-05-15T15:58:01.975Z,15.10
2023-05-15T16:00:34.996Z,14.98
2023-05-15T16:03:08.193Z,15.20
2023-05-15T16:05:41.795Z,15.13
2023-05-15T16:08:16.791Z,15.12
2023-05-15T16:10:49.773Z,15.14
2023-05-15T16:13:22.834Z,15.10
2023-05-15T16:15:55.914Z,15.05
2023-05-15T16:18:28.909Z,15.08
2023-05-15T16:21:02.275Z,15.24
2023-05-15T16:23:37.164Z,15.20
2023-05-15T16:26:11.374Z,15.16
2023-05-15T16:28:44.411Z,15.31
2023-05-15T16:31:17.646Z,15.24
2023-05-15T16:33:54.450Z,15.38
2023-05-15T16:36:27.878Z,15.50
2023-05-15T16:39:04.671Z,15.45
2023-05-15T16:41:45.015Z,15.57
2023-05-15T16:44:18.278Z,15.67
2023-05-15T16:46:55.112Z,15.56
2023-05-15T16:49:28.377Z,15.75
2023-05-15T16:52:01.570Z,15.66
2023-05-15T16:54:36.445Z,15.51
2023-05-15T16:57:09.761Z,15.43
2023-05-15T16:59:42.908Z,15.44
2023-05-15T17:02:16.011Z,15.76
2023-05-15T17:04:49.032Z,15.66
2023-05-15T17:07:21.940Z,15.51
2023-05-15T17:09:56.456Z,15.44
2023-05-15T17:12:29.672Z,15.76
2023-05-15T17:15:09.184Z,15.86
2023-05-15T17:17:42.241Z,15.56
2023-05-15T17:20:15.419Z,15.51
2023-05-15T17:22:48.327Z,15.62
2023-05-15T17:25:22.811Z,15.65
2023-05-15T17:27:55.764Z,15.77
2023-05-15T17:30:28.905Z,15.75
2023-05-15T17:33:02.062Z,15.53
2023-05-15T17:35:35.247Z,15.80
2023-05-15T17:38:08.827Z,15.87
2023-05-15T17:40:43.481Z,15.63
2023-05-15T17:43:17.234Z,15.70
2023-05-15T17:45:50.950Z,15.69
2023-05-15T17:48:24.256Z,15.77
2023-05-15T17:50:57.474Z,15.56
2023-05-15T17:53:31.036Z,15.64
2023-05-15T17:56:06.124Z,15.25
2023-05-15T17:58:39.377Z,15.50
2023-05-15T18:01:15.986Z,15.69
2023-05-15T18:03:49.606Z,15.61
2023-05-15T18:06:23.474Z,15.68
2023-05-15T18:09:00.304Z,15.73
2023-05-15T18:11:38.345Z,15.54
2023-05-15T18:14:16.474Z,15.38
2023-05-15T18:17:01.451Z,15.56
2023-05-15T18:20:21.551Z,15.43
2023-05-15T18:23:03.247Z,15.47
2023-05-15T18:25:36.977Z,15.30
2023-05-15T18:28:11.654Z,15.52
2023-05-15T18:30:46.731Z,15.62
2023-05-15T18:33:22.799Z,15.71
2023-05-15T18:35:57.914Z,15.63
2023-05-15T18:38:31.119Z,15.72
2023-05-15T18:41:04.545Z,15.70
2023-05-15T18:43:39.591Z,15.66
2023-05-15T18:46:15.463Z,15.65
2023-05-15T18:48:51.071Z,15.65
2023-05-15T18:51:31.506Z,15.69
2023-05-15T18:54:08.283Z,15.65
2023-05-15T18:56:46.178Z,15.38
2023-05-15T18:59:24.794Z,15.22
2023-05-15T19:02:01.198Z,15.12
2023-05-15T19:04:34.488Z,14.92
2023-05-15T19:07:08.359Z,14.75
2023-05-15T19:10:43.773Z,14.84
2023-05-15T19:13:33.339Z,14.85
2023-05-15T19:16:35.285Z,14.75
2023-05-15T19:19:19.245Z,14.66
2023-05-15T19:22:02.261Z,14.51
2023-05-15T19:24:49.317Z,14.55
2023-05-15T19:27:26.478Z,14.41
2023-05-15T19:29:59.883Z,13.97
2023-05-15T19:32:35.761Z,13.89
2023-05-15T19:35:09.891Z,13.96
2023-05-15T19:37:43.521Z,13.99
2023-05-15T19:40:18.681Z,14.02
2023-05-15T19:42:51.831Z,14.01
2023-05-15T19:45:24.867Z,14.05
2023-05-15T19:48:00.651Z,14.04
2023-05-15T19:50:33.798Z,13.99
2023-05-15T19:53:07.730Z,13.71
2023-05-15T19:55:40.973Z,13.77
2023-05-15T19:58:13.944Z,13.64
2023-05-15T20:00:48.160Z,13.73
2023-05-15T20:03:22.847Z,13.68
2023-05-15T20:05:55.975Z,13.70
2023-05-15T20:08:29.354Z,13.63
2023-05-15T20:11:02.366Z,13.78
2023-05-15T20:13:37.478Z,13.92
2023-05-15T20:16:12.651Z,13.89
2023-05-15T20:18:48.019Z,13.82
2023-05-15T20:21:21.000Z,13.76
2023-05-15T20:23:53.958Z,13.59
2023-05-15T20:26:27.197Z,13.49
2023-05-15T20:29:00.136Z,13.48
2023-05-15T20:31:33.703Z,13.63
2023-05-15T20:34:08.236Z,13.63
2023-05-15T20:36:41.570Z,13.32
2023-05-15T20:39:14.594Z,13.41
2023-05-15T20:41:47.676Z,13.38
2023-05-15T20:44:20.969Z,13.51
2023-05-15T20:46:54.036Z,13.51
2023-05-15T20:49:28.672Z,13.44
2023-05-15T20:52:02.061Z,13.37
2023-05-15T20:54:35.039Z,13.18
2023-05-15T20:57:08.178Z,13.29
2023-05-15T20:59:41.234Z,13.25
2023-05-15T21:02:14.256Z,13.25
2023-05-15T21:05:29.895Z,13.14
2023-05-15T21:08:54.556Z,13.19
2023-05-15T21:12:00.205Z,13.08
2023-05-15T21:14:50.465Z,12.87
2023-05-15T21:17:49.092Z,12.69
2023-05-15T21:21:02.850Z,12.84
2023-05-15T21:24:11.751Z,12.57
2023-05-15T21:30:49.628Z,12.75
2023-05-15T21:33:22.842Z,12.23
2023-05-15T21:35:57.460Z,12.48
2023-05-15T21:38:30.757Z,12.13
2023-05-15T21:41:04.005Z,12.32
2023-05-15T21:43:37.063Z,12.16
2023-05-15T21:46:10.256Z,12.23
2023-05-15T21:48:43.440Z,12.19
2023-05-15T21:51:18.189Z,12.17
2023-05-15T21:53:51.285Z,12.02
2023-05-15T21:56:24.545Z,11.98
2023-05-15T21:58:58.251Z,11.85
2023-05-15T22:01:31.637Z,11.99
2023-05-15T22:04:04.938Z,11.57
2023-05-15T22:06:40.427Z,11.59
2023-05-15T22:09:13.857Z,11.64
2023-05-15T22:11:47.225Z,11.79
2023-05-15T22:14:22.721Z,11.84
2023-05-15T22:16:56.131Z,11.87
2023-05-15T22:19:33.357Z,11.77
2023-05-15T22:22:08.252Z,11.53
2023-05-15T22:24:42.359Z,11.18
2023-05-15T22:27:16.856Z,11.18
2023-05-15T22:29:50.298Z,11.58
2023-05-15T22:32:23.684Z,11.71
2023-05-15T22:34:57.211Z,11.54
2023-05-15T22:37:32.214Z,11.64
2023-05-15T22:40:07.580Z,11.57
2023-05-15T22:42:40.704Z,11.56
2023-05-15T22:45:56.145Z,11.69
2023-05-15T22:48:29.502Z,11.46
2023-05-15T22:51:02.816Z,11.50
2023-05-15T22:53:37.277Z,11.58
2023-05-15T22:56:10.513Z,11.66
2023-05-15T22:58:43.706Z,11.46
2023-05-15T23:01:17.046Z,11.49
2023-05-15T23:03:50.402Z,11.39
2023-05-15T23:06:23.699Z,11.59
2023-05-15T23:08:58.527Z,11.52
2023-05-15T23:11:31.858Z,11.42
2023-05-15T23:14:04.973Z,11.60
2023-05-15T23:16:38.093Z,11.64
2023-05-15T23:19:11.560Z,11.76
2023-05-15T23:21:44.687Z,11.47
2023-05-15T23:24:19.218Z,11.78
2023-05-15T23:26:52.960Z,11.53
2023-05-15T23:29:26.529Z,11.89
2023-05-15T23:31:59.619Z,11.85
2023-05-15T23:34:32.693Z,11.75
2023-05-15T23:37:06.213Z,11.72
2023-05-15T23:39:40.733Z,11.68
2023-05-15T23:42:13.872Z,11.52
2023-05-15T23:44:47.076Z,11.62
2023-05-15T23:47:20.310Z,11.54
2023-05-15T23:49:53.432Z,11.79
2023-05-15T23:52:26.612Z,11.62
2023-05-15T23:55:01.876Z,11.57
2023-05-15T23:57:35.148Z,11.42
